createdAt,value
2018-08-20T00:02:28.333Z,20.90
2018-08-20T00:04:59.486Z,20.90
2018-08-20T00:07:27.556Z,20.90
2018-08-20T00:09:55.610Z,20.90
2018-08-20T00:12:23.682Z,20.90
2018-08-20T00:14:52.989Z,20.90
2018-08-20T00:17:21.069Z,21.00
2018-08-20T00:19:49.135Z,20.90
2018-08-20T00:22:17.183Z,20.80
2018-08-20T00:24:55.556Z,20.90
2018-08-20T00:27:23.601Z,20.80
2018-08-20T00:29:51.636Z,20.80
2018-08-20T00:32:19.702Z,20.70
2018-08-20T00:34:48.278Z,20.70
2018-08-20T00:37:16.530Z,20.70
2018-08-20T00:39:44.595Z,20.70
2018-08-20T00:42:12.754Z,20.60
2018-08-20T00:44:40.819Z,20.60
2018-08-20T00:47:08.856Z,20.70
2018-08-20T00:49:36.901Z,20.70
2018-08-20T00:52:04.967Z,20.60
2018-08-20T00:54:33.032Z,20.50
2018-08-20T00:57:01.096Z,20.60
2018-08-20T00:59:29.151Z,20.60
2018-08-20T01:01:57.209Z,20.60
2018-08-20T01:04:25.266Z,20.60
2018-08-20T01:06:53.326Z,20.60
2018-08-20T01:09:21.551Z,20.60
2018-08-20T01:11:49.592Z,20.60
2018-08-20T01:14:17.641Z,20.50
2018-08-20T01:16:45.690Z,20.50
2018-08-20T01:19:13.741Z,20.50
2018-08-20T01:21:41.798Z,20.50
2018-08-20T01:24:09.846Z,20.50
2018-08-20T01:26:37.909Z,20.40
2018-08-20T01:29:05.997Z,20.30
2018-08-20T01:31:34.318Z,20.40
2018-08-20T01:34:02.421Z,20.50
2018-08-20T01:36:30.533Z,20.50
2018-08-20T01:38:58.588Z,20.40
2018-08-20T01:41:26.821Z,20.40
2018-08-20T01:43:54.868Z,20.30
2018-08-20T01:46:22.925Z,20.30
2018-08-20T01:48:51.126Z,20.30
2018-08-20T01:51:19.233Z,20.30
2018-08-20T01:53:47.293Z,20.20
2018-08-20T01:56:15.369Z,20.20
2018-08-20T01:58:43.432Z,20.20
2018-08-20T02:01:11.481Z,20.20
2018-08-20T02:03:39.522Z,20.10
2018-08-20T02:06:07.582Z,20.10
2018-08-20T02:08:35.660Z,20.00
2018-08-20T02:11:03.770Z,20.10
2018-08-20T02:13:31.826Z,20.10
2018-08-20T02:15:59.873Z,20.00
2018-08-20T02:18:27.981Z,20.00
2018-08-20T02:20:56.114Z,20.10
2018-08-20T02:23:24.491Z,20.20
2018-08-20T02:25:52.523Z,20.10
2018-08-20T02:28:20.783Z,20.20
2018-08-20T02:30:48.845Z,20.10
2018-08-20T02:33:16.894Z,19.90
2018-08-20T02:35:44.954Z,19.80
2018-08-20T02:38:13.030Z,19.90
2018-08-20T02:40:41.072Z,19.80
2018-08-20T02:43:09.162Z,19.80
2018-08-20T02:45:37.209Z,19.70
2018-08-20T02:48:05.493Z,19.70
2018-08-20T02:50:33.569Z,19.70
2018-08-20T02:53:01.639Z,19.80
2018-08-20T02:55:29.701Z,19.60
2018-08-20T02:57:57.770Z,19.60
2018-08-20T03:00:25.814Z,19.70
2018-08-20T03:02:53.873Z,19.80
2018-08-20T03:05:21.926Z,19.70
2018-08-20T03:07:49.994Z,19.60
2018-08-20T03:10:18.044Z,19.70
2018-08-20T03:12:46.081Z,19.70
2018-08-20T03:15:14.149Z,19.60
2018-08-20T03:17:42.205Z,19.60
2018-08-20T03:20:10.267Z,19.60
2018-08-20T03:22:38.316Z,19.60
2018-08-20T03:25:06.974Z,19.70
2018-08-20T03:27:35.062Z,19.60
2018-08-20T03:30:03.313Z,19.60
2018-08-20T03:32:31.387Z,19.60
2018-08-20T03:34:59.466Z,19.60
2018-08-20T03:37:27.590Z,19.60
2018-08-20T03:39:55.642Z,19.60
2018-08-20T03:42:23.726Z,19.70
2018-08-20T03:44:52.097Z,19.60
2018-08-20T03:47:20.157Z,19.60
2018-08-20T03:49:48.442Z,19.60
2018-08-20T03:52:16.503Z,19.60
2018-08-20T03:54:44.565Z,19.60
2018-08-20T03:57:12.621Z,19.70
2018-08-20T03:59:41.685Z,19.70
2018-08-20T04:02:09.770Z,19.60
2018-08-20T04:04:37.849Z,19.60
2018-08-20T04:07:06.923Z,19.60
2018-08-20T04:09:35.276Z,19.60
2018-08-20T04:12:04.000Z,19.60
2018-08-20T04:14:32.072Z,19.60
2018-08-20T04:17:00.505Z,19.50
2018-08-20T04:19:28.993Z,19.50
2018-08-20T04:21:57.130Z,19.40
2018-08-20T04:24:25.193Z,19.40
2018-08-20T04:26:53.237Z,19.60
2018-08-20T04:29:21.790Z,19.50
2018-08-20T04:31:49.844Z,19.60
2018-08-20T04:34:17.913Z,19.60
2018-08-20T04:36:45.968Z,19.60
2018-08-20T04:39:14.023Z,19.60
2018-08-20T04:41:42.077Z,19.50
2018-08-20T04:44:10.169Z,19.70
2018-08-20T04:46:38.237Z,19.60
2018-08-20T04:49:06.373Z,19.60
2018-08-20T04:51:34.493Z,19.60
2018-08-20T04:54:02.531Z,19.60
2018-08-20T04:59:05.128Z,19.70
2018-08-20T05:01:33.171Z,19.70
2018-08-20T05:04:01.291Z,19.60
2018-08-20T05:06:29.289Z,19.60
2018-08-20T05:08:57.358Z,19.70
2018-08-20T05:11:25.414Z,19.70
2018-08-20T05:13:53.477Z,19.70
2018-08-20T05:16:21.562Z,19.60
2018-08-20T05:18:49.670Z,19.70
2018-08-20T05:21:17.697Z,19.60
2018-08-20T05:23:46.366Z,19.70
2018-08-20T05:26:14.417Z,19.60
2018-08-20T05:28:42.493Z,19.60
2018-08-20T05:31:10.566Z,19.60
2018-08-20T05:33:38.650Z,19.60
2018-08-20T05:36:06.862Z,19.60
2018-08-20T05:38:34.930Z,19.70
2018-08-20T05:41:02.979Z,19.70
2018-08-20T05:43:31.021Z,19.70
2018-08-20T05:45:59.133Z,19.70
2018-08-20T05:48:27.220Z,19.80
2018-08-20T05:50:55.277Z,19.80
2018-08-20T05:53:23.345Z,19.80
2018-08-20T05:55:51.406Z,19.90
2018-08-20T05:58:19.474Z,19.90
2018-08-20T06:00:47.545Z,19.80
2018-08-20T06:03:15.586Z,19.80
2018-08-20T06:05:43.671Z,19.80
2018-08-20T06:08:12.564Z,19.80
2018-08-20T06:10:40.619Z,19.80
2018-08-20T06:13:08.649Z,19.90
2018-08-20T06:15:36.727Z,19.90
2018-08-20T06:18:05.389Z,19.90
2018-08-20T06:20:33.476Z,19.90
2018-08-20T06:23:03.014Z,19.90
2018-08-20T06:25:31.099Z,19.90
2018-08-20T06:27:59.139Z,19.90
2018-08-20T06:30:27.191Z,20.00
2018-08-20T06:32:55.238Z,19.70
2018-08-20T06:35:23.304Z,19.70
2018-08-20T06:37:52.683Z,19.60
2018-08-20T06:40:22.297Z,19.20
2018-08-20T06:42:50.345Z,19.10
2018-08-20T06:45:18.405Z,19.10
2018-08-20T06:47:47.053Z,19.20
2018-08-20T06:50:15.549Z,19.10
2018-08-20T06:52:44.438Z,19.10
2018-08-20T06:55:13.777Z,19.10
2018-08-20T06:57:42.413Z,19.20
2018-08-20T07:00:11.514Z,19.30
2018-08-20T07:02:39.993Z,19.30
2018-08-20T07:05:08.781Z,19.20
2018-08-20T07:07:37.858Z,19.20
2018-08-20T07:10:07.557Z,19.20
2018-08-20T07:12:35.966Z,19.30
2018-08-20T07:15:04.050Z,19.30
2018-08-20T07:17:32.107Z,19.20
2018-08-20T07:20:00.167Z,19.30
2018-08-20T07:22:28.226Z,19.50
2018-08-20T07:24:56.288Z,19.50
2018-08-20T07:27:24.656Z,19.60
2018-08-20T07:29:52.916Z,19.70
2018-08-20T07:32:21.378Z,19.70
2018-08-20T07:34:49.436Z,19.80
2018-08-20T07:37:17.901Z,19.80
2018-08-20T07:39:47.864Z,19.80
2018-08-20T07:42:16.020Z,19.80
2018-08-20T07:44:44.873Z,19.90
2018-08-20T07:47:13.049Z,20.00
2018-08-20T07:49:41.101Z,20.10
2018-08-20T07:52:10.285Z,20.00
2018-08-20T07:54:39.110Z,20.00
2018-08-20T07:57:08.441Z,20.10
2018-08-20T07:59:36.513Z,20.00
2018-08-20T08:02:04.656Z,20.00
2018-08-20T08:04:32.699Z,20.10
2018-08-20T08:07:01.186Z,20.10
2018-08-20T08:09:29.282Z,20.10
2018-08-20T08:11:57.620Z,20.00
2018-08-20T08:14:25.875Z,20.10
2018-08-20T08:16:53.918Z,20.10
2018-08-20T08:19:21.988Z,19.90
2018-08-20T08:21:50.038Z,19.90
2018-08-20T08:24:18.109Z,19.80
2018-08-20T08:26:46.177Z,19.80
2018-08-20T08:29:14.222Z,19.70
2018-08-20T08:31:42.274Z,19.50
2018-08-20T08:34:10.309Z,19.60
2018-08-20T08:36:38.385Z,19.70
2018-08-20T08:39:09.033Z,19.60
2018-08-20T08:41:37.089Z,19.50
2018-08-20T08:44:05.255Z,19.70
2018-08-20T08:46:33.313Z,19.80
2018-08-20T08:49:01.629Z,19.90
2018-08-20T08:51:29.692Z,19.90
2018-08-20T08:53:57.715Z,19.80
2018-08-20T08:56:25.763Z,20.00
2018-08-20T08:58:53.813Z,20.20
2018-08-20T09:01:21.968Z,20.30
2018-08-20T09:03:50.054Z,20.30
2018-08-20T09:06:18.109Z,20.20
2018-08-20T09:08:46.312Z,20.30
2018-08-20T09:11:14.345Z,20.30
2018-08-20T09:13:42.473Z,20.30
2018-08-20T09:16:10.506Z,20.40
2018-08-20T09:18:38.603Z,20.30
2018-08-20T09:21:06.617Z,20.20
2018-08-20T09:23:34.706Z,20.20
2018-08-20T09:26:02.761Z,20.20
2018-08-20T09:28:30.833Z,20.30
2018-08-20T09:30:58.891Z,20.40
2018-08-20T09:33:26.938Z,20.50
2018-08-20T09:35:55.012Z,20.70
2018-08-20T09:38:23.168Z,20.80
2018-08-20T09:40:51.185Z,20.90
2018-08-20T09:43:19.245Z,20.90
2018-08-20T09:45:47.310Z,20.90
2018-08-20T09:48:15.361Z,21.00
2018-08-20T09:50:43.405Z,21.20
2018-08-20T09:53:11.467Z,21.40
2018-08-20T09:55:39.525Z,21.10
2018-08-20T09:58:07.578Z,21.10
2018-08-20T10:00:39.424Z,21.00
2018-08-20T10:03:08.246Z,20.90
2018-08-20T10:05:36.358Z,20.80
2018-08-20T10:08:04.590Z,20.70
2018-08-20T10:10:32.646Z,20.70
2018-08-20T10:13:00.706Z,20.70
2018-08-20T10:15:28.766Z,20.80
2018-08-20T10:17:56.832Z,20.80
2018-08-20T10:20:24.978Z,20.70
2018-08-20T10:22:53.032Z,20.70
2018-08-20T10:25:21.074Z,20.70
2018-08-20T10:27:49.175Z,20.40
2018-08-20T10:30:17.249Z,20.40
2018-08-20T10:32:45.269Z,20.30
2018-08-20T10:35:13.352Z,20.40
2018-08-20T10:37:41.562Z,20.30
2018-08-20T10:40:09.517Z,20.40
2018-08-20T10:42:38.177Z,20.40
2018-08-20T10:45:20.494Z,20.50
2018-08-20T10:47:49.666Z,20.50
2018-08-20T10:50:19.074Z,20.60
2018-08-20T10:52:48.701Z,20.50
2018-08-20T10:55:16.850Z,20.50
2018-08-20T10:57:45.393Z,20.50
2018-08-20T11:00:14.117Z,20.60
2018-08-20T11:02:42.406Z,20.80
2018-08-20T11:05:13.260Z,20.80
2018-08-20T11:07:41.326Z,20.80
2018-08-20T11:10:09.468Z,20.70
2018-08-20T11:12:37.755Z,20.70
2018-08-20T11:15:06.957Z,20.70
2018-08-20T11:17:35.226Z,20.60
2018-08-20T11:20:03.427Z,20.60
2018-08-20T11:22:31.489Z,20.60
2018-08-20T11:24:59.554Z,21.00
2018-08-20T11:27:28.404Z,21.30
2018-08-20T11:29:56.429Z,21.20
2018-08-20T11:32:24.469Z,21.30
2018-08-20T11:34:52.566Z,21.00
2018-08-20T11:37:20.738Z,20.90
2018-08-20T11:39:48.725Z,21.00
2018-08-20T11:42:16.769Z,21.00
2018-08-20T11:44:44.828Z,20.90
2018-08-20T11:47:12.902Z,21.00
2018-08-20T11:49:40.974Z,21.10
2018-08-20T11:52:09.030Z,21.10
2018-08-20T11:54:37.102Z,19.90
2018-08-20T11:57:05.173Z,20.70
2018-08-20T11:59:33.239Z,20.60
2018-08-20T12:02:01.748Z,20.60
2018-08-20T12:04:29.782Z,20.60
2018-08-20T12:06:57.928Z,20.70
2018-08-20T12:09:25.967Z,20.80
2018-08-20T12:11:54.070Z,21.10
2018-08-20T12:14:22.151Z,21.10
2018-08-20T12:16:50.227Z,21.10
2018-08-20T12:19:18.279Z,21.10
2018-08-20T12:21:46.318Z,21.00
2018-08-20T12:24:14.374Z,21.00
2018-08-20T12:26:42.411Z,21.20
2018-08-20T12:29:10.646Z,21.10
2018-08-20T12:31:38.717Z,21.30
2018-08-20T12:34:07.698Z,21.20
2018-08-20T12:36:36.256Z,21.20
2018-08-20T12:39:05.594Z,21.30
2018-08-20T12:41:33.678Z,21.30
2018-08-20T12:44:01.761Z,21.20
2018-08-20T12:46:29.805Z,21.40
2018-08-20T12:48:57.888Z,21.60
2018-08-20T12:51:25.933Z,21.60
2018-08-20T12:53:54.122Z,21.70
2018-08-20T12:56:22.169Z,21.50
2018-08-20T12:58:52.297Z,21.50
2018-08-20T13:01:20.561Z,21.40
2018-08-20T13:03:49.341Z,21.40
2018-08-20T13:06:17.498Z,21.70
2018-08-20T13:08:47.160Z,21.80
2018-08-20T13:11:15.503Z,21.90
2018-08-20T13:13:43.673Z,21.80
2018-08-20T13:16:11.866Z,21.70
2018-08-20T13:18:39.786Z,21.50
2018-08-20T13:21:08.331Z,21.50
2018-08-20T13:23:36.574Z,21.60
2018-08-20T13:26:04.685Z,21.50
2018-08-20T13:28:32.982Z,21.40
2018-08-20T13:31:01.538Z,21.50
2018-08-20T13:33:29.707Z,21.50
2018-08-20T13:35:57.758Z,21.70
2018-08-20T13:38:25.820Z,21.70
2018-08-20T13:40:53.889Z,21.60
2018-08-20T13:43:21.935Z,21.70
2018-08-20T13:45:49.989Z,21.90
2018-08-20T13:48:18.038Z,21.70
2018-08-20T13:50:46.253Z,21.70
2018-08-20T13:53:14.297Z,21.80
2018-08-20T13:55:42.371Z,21.90
2018-08-20T13:58:10.429Z,22.20
2018-08-20T14:00:38.509Z,22.40
2018-08-20T14:03:06.570Z,21.90
2018-08-20T14:05:34.625Z,21.90
2018-08-20T14:08:02.686Z,22.20
2018-08-20T14:10:30.766Z,22.00
2018-08-20T14:12:58.854Z,22.00
2018-08-20T14:15:27.200Z,22.00
2018-08-20T14:17:55.266Z,22.20
2018-08-20T14:20:23.346Z,22.00
2018-08-20T14:22:51.409Z,22.00
2018-08-20T14:25:19.449Z,22.00
2018-08-20T14:27:47.501Z,22.10
2018-08-20T14:30:16.537Z,22.50
2018-08-20T14:32:45.002Z,23.00
2018-08-20T14:35:13.150Z,22.90
2018-08-20T14:37:41.555Z,22.70
2018-08-20T14:40:14.273Z,23.10
2018-08-20T14:42:42.665Z,23.10
2018-08-20T14:45:12.370Z,23.50
2018-08-20T14:47:41.475Z,23.30
2018-08-20T14:50:11.538Z,23.30
2018-08-20T14:52:39.702Z,23.00
2018-08-20T14:55:08.192Z,23.00
2018-08-20T14:57:36.354Z,23.30
2018-08-20T15:00:05.935Z,23.60
2018-08-20T15:02:34.023Z,23.80
2018-08-20T15:05:02.054Z,24.40
2018-08-20T15:07:30.145Z,24.40
2018-08-20T15:09:58.176Z,23.90
2018-08-20T15:12:26.486Z,23.70
2018-08-20T15:14:54.522Z,23.60
2018-08-20T15:17:29.201Z,23.30
2018-08-20T15:19:57.305Z,23.00
2018-08-20T15:22:25.354Z,23.10
2018-08-20T15:24:53.438Z,22.90
2018-08-20T15:27:21.513Z,22.80
2018-08-20T15:29:49.549Z,22.80
2018-08-20T15:32:17.586Z,22.80
2018-08-20T15:34:45.626Z,22.70
2018-08-20T15:37:13.691Z,22.50
2018-08-20T15:39:42.009Z,22.40
2018-08-20T15:42:09.933Z,22.30
2018-08-20T15:44:37.982Z,22.30
2018-08-20T15:47:06.050Z,22.30
2018-08-20T15:49:34.126Z,22.20
2018-08-20T15:52:02.202Z,22.10
2018-08-20T15:54:30.257Z,22.00
2018-08-20T15:56:58.305Z,21.80
2018-08-20T15:59:26.358Z,21.90
2018-08-20T16:01:54.401Z,21.90
2018-08-20T16:04:22.453Z,22.20
2018-08-20T16:06:50.699Z,22.10
2018-08-20T16:09:18.761Z,22.40
2018-08-20T16:11:47.635Z,22.20
2018-08-20T16:14:15.677Z,22.10
2018-08-20T16:16:43.741Z,21.70
2018-08-20T16:19:11.797Z,21.60
2018-08-20T16:21:39.858Z,21.40
2018-08-20T16:24:07.938Z,21.40
2018-08-20T16:26:36.022Z,21.30
2018-08-20T16:29:04.130Z,21.50
2018-08-20T16:31:32.204Z,21.60
2018-08-20T16:34:00.240Z,21.70
2018-08-20T16:36:28.698Z,21.70
2018-08-20T16:38:56.749Z,21.70
2018-08-20T16:41:24.923Z,21.70
2018-08-20T16:43:52.985Z,21.50
2018-08-20T16:46:21.883Z,21.30
2018-08-20T16:48:49.937Z,21.30
2018-08-20T16:51:18.102Z,21.10
2018-08-20T16:53:46.801Z,21.00
2018-08-20T16:56:15.266Z,21.00
2018-08-20T16:58:43.318Z,20.90
2018-08-20T17:01:14.745Z,20.80
2018-08-20T17:03:42.786Z,20.80
2018-08-20T17:06:10.846Z,20.80
2018-08-20T17:08:41.525Z,20.80
2018-08-20T17:11:10.351Z,20.70
2018-08-20T17:13:38.401Z,20.90
2018-08-20T17:16:09.946Z,20.80
2018-08-20T17:18:38.274Z,20.70
2018-08-20T17:21:06.425Z,20.60
2018-08-20T17:23:34.872Z,20.90
2018-08-20T17:26:02.921Z,20.80
2018-08-20T17:28:30.982Z,20.90
2018-08-20T17:31:00.806Z,20.80
2018-08-20T17:33:30.901Z,20.60
2018-08-20T17:35:59.050Z,20.70
2018-08-20T17:38:27.130Z,20.60
2018-08-20T17:40:55.193Z,20.60
2018-08-20T17:43:23.309Z,20.60
2018-08-20T17:45:51.394Z,20.70
2018-08-20T17:48:24.960Z,20.80
2018-08-20T17:50:53.167Z,20.60
2018-08-20T17:53:21.868Z,20.60
2018-08-20T17:55:49.913Z,20.60
2018-08-20T17:58:18.022Z,20.70
2018-08-20T18:00:51.566Z,20.50
2018-08-20T18:03:25.981Z,20.20
2018-08-20T18:05:59.320Z,20.10
2018-08-20T18:08:28.431Z,20.20
2018-08-20T18:10:56.614Z,20.30
2018-08-20T18:13:36.438Z,20.20
2018-08-20T18:16:06.237Z,20.10
2018-08-20T18:18:34.710Z,20.00
2018-08-20T18:21:02.787Z,20.00
2018-08-20T18:23:32.295Z,19.90
2018-08-20T18:26:01.146Z,20.00
2018-08-20T18:28:34.386Z,19.90
2018-08-20T18:31:07.689Z,19.80
2018-08-20T18:33:35.757Z,19.50
2018-08-20T18:36:08.318Z,19.60
2018-08-20T18:38:40.632Z,19.60
2018-08-20T18:41:08.718Z,19.50
2018-08-20T18:43:36.813Z,19.50
2018-08-20T18:46:05.722Z,19.50
2018-08-20T18:48:39.111Z,19.60
2018-08-20T18:51:08.611Z,19.40
2018-08-20T18:53:37.001Z,19.50
2018-08-20T18:56:10.548Z,19.40
2018-08-20T18:58:39.338Z,19.20
2018-08-20T19:01:08.436Z,19.20
2018-08-20T19:03:45.157Z,19.30
2018-08-20T19:06:13.621Z,19.40
2018-08-20T19:08:42.119Z,19.40
2018-08-20T19:11:10.926Z,19.30
2018-08-20T19:13:38.991Z,19.30
2018-08-20T19:16:29.897Z,19.20
2018-08-20T19:18:58.018Z,19.20
2018-08-20T19:21:26.974Z,19.00
2018-08-20T19:23:56.041Z,19.00
2018-08-20T19:26:24.302Z,19.10
2018-08-20T19:28:52.374Z,19.10
2018-08-20T19:31:20.445Z,19.10
2018-08-20T19:33:48.508Z,19.00
2018-08-20T19:36:16.561Z,19.00
2018-08-20T19:38:44.637Z,19.00
2018-08-20T19:41:13.736Z,19.00
2018-08-20T19:43:46.354Z,19.00
2018-08-20T19:46:26.533Z,18.90
2018-08-20T19:48:59.959Z,18.80
2018-08-20T19:51:28.017Z,18.70
2018-08-20T19:53:56.057Z,18.70
2018-08-20T19:56:24.114Z,18.70
2018-08-20T19:58:52.189Z,18.60
2018-08-20T20:01:20.305Z,18.60
2018-08-20T20:03:49.564Z,18.70
2018-08-20T20:06:17.917Z,18.70
2018-08-20T20:08:45.985Z,18.70
2018-08-20T20:11:20.998Z,18.60
2018-08-20T20:13:56.109Z,18.50
2018-08-20T20:16:24.662Z,18.50
2018-08-20T20:18:53.241Z,18.50
2018-08-20T20:21:21.909Z,17.30
2018-08-20T20:23:50.012Z,18.50
2018-08-20T20:26:18.265Z,18.50
2018-08-20T20:28:46.334Z,18.30
2018-08-20T20:31:14.441Z,18.30
2018-08-20T20:33:42.490Z,18.30
2018-08-20T20:36:15.897Z,18.20
2018-08-20T20:38:44.476Z,18.10
2018-08-20T20:41:12.465Z,18.30
2018-08-20T20:43:40.670Z,18.30
2018-08-20T20:46:09.897Z,18.20
2018-08-20T20:48:40.514Z,18.20
2018-08-20T20:51:08.590Z,18.30
2018-08-20T20:53:36.765Z,18.20
2018-08-20T20:56:04.885Z,18.30
2018-08-20T20:58:34.958Z,18.30
2018-08-20T21:01:04.375Z,18.30
2018-08-20T21:03:32.806Z,18.10
2018-08-20T21:06:01.118Z,18.00
2018-08-20T21:08:34.818Z,18.00
2018-08-20T21:11:02.893Z,18.00
2018-08-20T21:13:30.954Z,17.90
2018-08-20T21:16:03.252Z,18.00
2018-08-20T21:18:33.246Z,18.00
2018-08-20T21:21:01.438Z,17.90
2018-08-20T21:23:29.599Z,17.90
2018-08-20T21:25:57.773Z,17.80
2018-08-20T21:28:34.191Z,17.60
2018-08-20T21:31:02.312Z,17.70
2018-08-20T21:33:30.401Z,17.70
2018-08-20T21:35:58.453Z,17.70
2018-08-20T21:38:26.563Z,17.60
2018-08-20T21:40:54.732Z,17.60
2018-08-20T21:43:23.194Z,17.70
2018-08-20T21:45:51.250Z,17.70
2018-08-20T21:48:19.282Z,17.70
2018-08-20T21:50:47.341Z,17.50
2018-08-20T21:53:16.320Z,17.60
2018-08-20T21:55:44.333Z,17.40
2018-08-20T21:58:12.372Z,17.50
2018-08-20T22:00:40.421Z,17.50
2018-08-20T22:03:10.925Z,17.50
2018-08-20T22:05:39.993Z,17.60
2018-08-20T22:08:08.189Z,17.40
2018-08-20T22:10:36.237Z,17.20
2018-08-20T22:13:04.868Z,17.20
2018-08-20T22:15:32.913Z,17.20
2018-08-20T22:18:01.061Z,17.40
2018-08-20T22:20:29.180Z,17.30
2018-08-20T22:22:57.197Z,17.30
2018-08-20T22:25:25.239Z,17.20
2018-08-20T22:27:54.179Z,17.10
2018-08-20T22:30:22.227Z,17.20
2018-08-20T22:32:50.249Z,17.20
2018-08-20T22:35:23.624Z,17.30
2018-08-20T22:37:52.193Z,17.30
2018-08-20T22:40:20.974Z,17.30
2018-08-20T22:42:52.529Z,17.20
2018-08-20T22:45:21.214Z,17.20
2018-08-20T22:47:50.109Z,17.10
2018-08-20T22:50:18.157Z,17.00
2018-08-20T22:52:48.610Z,17.00
2018-08-20T22:55:17.909Z,17.10
2018-08-20T22:57:57.755Z,17.10
2018-08-20T23:00:26.433Z,17.10
2018-08-20T23:02:55.429Z,17.10
2018-08-20T23:05:23.481Z,17.00
2018-08-20T23:07:51.758Z,17.10
2018-08-20T23:10:19.789Z,17.00
2018-08-20T23:12:50.220Z,17.10
2018-08-20T23:15:18.266Z,17.20
2018-08-20T23:17:46.293Z,17.20
2018-08-20T23:20:20.002Z,17.20
2018-08-20T23:22:48.290Z,17.00
2018-08-20T23:25:16.324Z,17.00
2018-08-20T23:27:44.397Z,17.10
2018-08-20T23:30:13.825Z,17.10
2018-08-20T23:32:41.864Z,17.10
2018-08-20T23:35:09.912Z,17.10
2018-08-20T23:37:37.965Z,17.10
2018-08-20T23:40:06.388Z,17.10
2018-08-20T23:42:34.448Z,17.10
2018-08-20T23:45:02.514Z,17.00
2018-08-20T23:47:30.558Z,17.00
2018-08-20T23:49:58.601Z,16.90
2018-08-20T23:52:26.653Z,17.00
2018-08-20T23:54:54.815Z,16.90
2018-08-20T23:57:22.825Z,17.00
2018-08-20T23:59:50.861Z,17.00
